Time;durP1;ratioP1;P1;durP2;ratioP2;P2;SDS_P1;SDS_P2;PMS_P1;PMS_P2;Temp;Humidity;BMP_temperature;BMP_pressure;BME280_temperature;BME280_humidity;BME280_pressure;Samples;Min_cycle;Max_cycle;Signal;HPM_P1;HPM_P2
2023/07/15 00:00:14;;;;;;;7.73;3.83;;;;;;;;;;5071709;28;20582;-70
2023/07/15 00:02:43;;;;;;;5.27;3.97;;;;;;;;;;5069363;28;20637;-71
2023/07/15 00:05:18;;;;;;;4.23;3.73;;;;;;;;;;5070576;28;20606;-68
2023/07/15 00:07:48;;;;;;;4.93;3.10;;;;;;;;;;5066466;28;20629;-68
2023/07/15 00:10:16;;;;;;;3.47;3.27;;;;;;;;;;5067632;28;20646;-69
2023/07/15 00:12:44;;;;;;;3.77;3.40;;;;;;;;;;5067416;28;20641;-68
2023/07/15 00:15:13;;;;;;;6.07;3.13;;;;;;;;;;5058125;28;20613;-69
2023/07/15 00:17:42;;;;;;;9.23;3.90;;;;;;;;;;5053176;28;21254;-69
2023/07/15 00:20:14;;;;;;;5.90;3.63;;;;;;;;;;5066778;28;20628;-69
2023/07/15 00:22:44;;;;;;;4.87;3.73;;;;;;;;;;5073168;28;20600;-68
2023/07/15 00:25:16;;;;;;;3.80;3.40;;;;;;;;;;5073532;28;20611;-68
2023/07/15 00:27:44;;;;;;;4.00;3.60;;;;;;;;;;5073569;28;20602;-67
2023/07/15 00:30:14;;;;;;;4.57;3.90;;;;;;;;;;5072577;28;20626;-69
2023/07/15 00:32:42;;;;;;;3.17;2.90;;;;;;;;;;5073343;28;21195;-69
2023/07/15 00:35:19;;;;;;;13.47;4.30;;;;;;;;;;5074875;28;20892;-69
2023/07/15 00:37:48;;;;;;;5.47;4.20;;;;;;;;;;5073192;28;20985;-67
2023/07/15 00:40:18;;;;;;;4.80;3.40;;;;;;;;;;5073639;28;20626;-68
2023/07/15 00:43:05;;;;;;;7.30;3.73;;;;;;;;;;5072477;28;20606;-69
2023/07/15 00:45:33;;;;;;;3.23;3.03;;;;;;;;;;5073799;28;20598;-69
2023/07/15 00:48:07;;;;;;;6.30;3.87;;;;;;;;;;5073217;28;20956;-68
2023/07/15 00:50:39;;;;;;;4.50;3.60;;;;;;;;;;5072681;28;20608;-69
2023/07/15 00:53:07;;;;;;;4.97;3.40;;;;;;;;;;5073661;28;20651;-68
2023/07/15 00:55:35;;;;;;;5.63;3.60;;;;;;;;;;5073377;28;20622;-68
2023/07/15 00:58:06;;;;;;;4.23;3.37;;;;;;;;;;5072862;28;20742;-68
2023/07/15 01:00:34;;;;;;;5.20;3.30;;;;;;;;;;5072983;28;20636;-68
2023/07/15 01:03:04;;;;;;;3.87;3.43;;;;;;;;;;5061552;28;20630;-69
2023/07/15 01:05:33;;;;;;;4.00;3.60;;;;;;;;;;5072427;28;20618;-69
2023/07/15 01:08:01;;;;;;;6.30;3.73;;;;;;;;;;5072428;28;20618;-69
2023/07/15 01:10:29;;;;;;;4.13;3.83;;;;;;;;;;5072664;28;20662;-68
2023/07/15 01:12:57;;;;;;;4.33;4.03;;;;;;;;;;5063529;28;20970;-69
2023/07/15 01:15:25;;;;;;;4.17;3.23;;;;;;;;;;5056908;28;20630;-68
2023/07/15 01:17:53;;;;;;;3.83;3.53;;;;;;;;;;5073222;28;20649;-69
2023/07/15 01:20:25;;;;;;;3.97;3.67;;;;;;;;;;5072785;28;20618;-69
2023/07/15 01:22:55;;;;;;;5.33;3.60;;;;;;;;;;5054640;28;20618;-68
2023/07/15 01:25:23;;;;;;;3.80;3.50;;;;;;;;;;5073050;28;20655;-67
2023/07/15 01:27:52;;;;;;;4.50;3.80;;;;;;;;;;5072769;28;20626;-67
2023/07/15 01:30:22;;;;;;;3.90;3.50;;;;;;;;;;5073082;28;20612;-67
2023/07/15 01:32:52;;;;;;;4.67;3.90;;;;;;;;;;5071282;28;20633;-68
2023/07/15 01:35:23;;;;;;;4.07;3.67;;;;;;;;;;5072972;28;20658;-68
2023/07/15 01:37:51;;;;;;;4.93;3.90;;;;;;;;;;5071136;28;21017;-69
2023/07/15 01:40:21;;;;;;;3.77;3.47;;;;;;;;;;5070100;28;21278;-69
2023/07/15 01:42:49;;;;;;;6.10;3.97;;;;;;;;;;5072299;28;20985;-69
2023/07/15 01:45:17;;;;;;;7.53;3.60;;;;;;;;;;5072902;28;20620;-69
2023/07/15 01:47:46;;;;;;;8.63;3.87;;;;;;;;;;5072377;28;20651;-67
2023/07/15 01:50:14;;;;;;;6.73;3.80;;;;;;;;;;5072773;28;20966;-66
2023/07/15 01:52:42;;;;;;;5.83;3.97;;;;;;;;;;5072756;28;20629;-68
2023/07/15 01:55:10;;;;;;;4.70;3.80;;;;;;;;;;5053359;28;20619;-68
2023/07/15 01:57:40;;;;;;;4.67;3.70;;;;;;;;;;5063358;28;21217;-69
2023/07/15 02:00:10;;;;;;;4.70;3.50;;;;;;;;;;5072399;28;20600;-68
2023/07/15 02:02:41;;;;;;;5.00;4.60;;;;;;;;;;5072006;28;20957;-68
2023/07/15 02:05:09;;;;;;;4.67;4.27;;;;;;;;;;5071794;28;20977;-69
2023/07/15 02:07:37;;;;;;;5.93;3.40;;;;;;;;;;5071727;28;20617;-68
2023/07/15 02:10:06;;;;;;;4.23;3.90;;;;;;;;;;5062808;28;21212;-69
2023/07/15 02:12:34;;;;;;;4.93;3.97;;;;;;;;;;5052031;28;20618;-68
2023/07/15 02:15:04;;;;;;;4.30;3.90;;;;;;;;;;5051053;28;21176;-68
2023/07/15 02:17:33;;;;;;;4.13;3.80;;;;;;;;;;5067527;28;21122;-68
2023/07/15 02:20:06;;;;;;;4.83;4.40;;;;;;;;;;5051860;28;20650;-68
2023/07/15 02:22:34;;;;;;;6.13;4.27;;;;;;;;;;5051024;28;21151;-68
2023/07/15 02:25:02;;;;;;;9.07;4.57;;;;;;;;;;5063077;28;20997;-69
2023/07/15 02:27:31;;;;;;;3.93;3.53;;;;;;;;;;5071488;28;21218;-68
2023/07/15 02:29:59;;;;;;;4.80;3.87;;;;;;;;;;5070832;28;20629;-68
2023/07/15 02:32:39;;;;;;;4.80;4.40;;;;;;;;;;5070719;28;20640;-68
2023/07/15 02:35:12;;;;;;;9.00;5.30;;;;;;;;;;5071497;28;20680;-68
2023/07/15 02:37:40;;;;;;;4.33;3.80;;;;;;;;;;5072235;28;20625;-69
2023/07/15 02:40:10;;;;;;;9.00;4.77;;;;;;;;;;5071955;28;20688;-68
2023/07/15 02:42:38;;;;;;;5.63;4.17;;;;;;;;;;5071647;28;21222;-68
2023/07/15 02:45:07;;;;;;;5.70;4.33;;;;;;;;;;5070263;28;20760;-68
2023/07/15 02:47:39;;;;;;;7.23;3.97;;;;;;;;;;5071950;28;20626;-68
2023/07/15 02:50:09;;;;;;;4.40;4.00;;;;;;;;;;5071301;28;20613;-69
2023/07/15 02:52:38;;;;;;;4.03;3.73;;;;;;;;;;5055327;28;21233;-69
2023/07/15 02:55:07;;;;;;;6.23;3.80;;;;;;;;;;5070300;28;20632;-68
2023/07/15 02:57:36;;;;;;;5.43;4.43;;;;;;;;;;5071499;28;20662;-67
2023/07/15 03:00:11;;;;;;;4.40;4.00;;;;;;;;;;5068407;28;20665;-67
2023/07/15 03:02:44;;;;;;;5.73;3.97;;;;;;;;;;5070494;28;20609;-68
2023/07/15 03:05:13;;;;;;;4.47;4.17;;;;;;;;;;5069151;28;20612;-68
2023/07/15 03:07:44;;;;;;;4.10;3.80;;;;;;;;;;5071810;28;20632;-68
2023/07/15 03:10:14;;;;;;;6.13;4.40;;;;;;;;;;5064451;28;20744;-69
2023/07/15 03:12:43;;;;;;;5.63;4.00;;;;;;;;;;5068024;28;20635;-67
2023/07/15 03:15:11;;;;;;;4.30;3.90;;;;;;;;;;5055164;28;20599;-68
2023/07/15 03:17:41;;;;;;;4.40;4.00;;;;;;;;;;5069610;28;20629;-69
2023/07/15 03:20:14;;;;;;;4.43;4.13;;;;;;;;;;5069769;28;21050;-69
2023/07/15 03:22:43;;;;;;;4.27;3.77;;;;;;;;;;5070209;28;20570;-69
2023/07/15 03:25:11;;;;;;;5.53;4.63;;;;;;;;;;5070683;28;21077;-68
2023/07/15 03:27:40;;;;;;;5.23;4.83;;;;;;;;;;5068303;28;21218;-69
2023/07/15 03:30:09;;;;;;;6.60;5.00;;;;;;;;;;5069509;28;20622;-68
2023/07/15 03:32:37;;;;;;;7.07;4.43;;;;;;;;;;5070277;28;20617;-68
2023/07/15 03:35:09;;;;;;;4.50;3.93;;;;;;;;;;5068736;28;20622;-69
2023/07/15 03:37:38;;;;;;;4.43;4.00;;;;;;;;;;5069130;28;20622;-68
2023/07/15 03:40:08;;;;;;;5.67;3.57;;;;;;;;;;5069530;28;20662;-68
2023/07/15 03:42:36;;;;;;;5.23;4.60;;;;;;;;;;5070163;28;20664;-68
2023/07/15 03:45:05;;;;;;;5.47;4.43;;;;;;;;;;5067645;28;20641;-68
2023/07/15 03:47:34;;;;;;;5.63;4.70;;;;;;;;;;5070642;28;20614;-69
2023/07/15 03:50:03;;;;;;;5.17;4.77;;;;;;;;;;5070602;28;20617;-68
2023/07/15 03:52:32;;;;;;;6.03;4.77;;;;;;;;;;5069711;28;20633;-69
2023/07/15 03:55:03;;;;;;;4.80;4.30;;;;;;;;;;5070874;28;20626;-69
2023/07/15 03:57:31;;;;;;;18.53;4.80;;;;;;;;;;5069335;28;20652;-68
2023/07/15 03:59:59;;;;;;;5.83;5.27;;;;;;;;;;5054417;28;20642;-68
2023/07/15 04:02:28;;;;;;;4.40;4.07;;;;;;;;;;5054531;28;20994;-68
2023/07/15 04:04:56;;;;;;;5.77;4.80;;;;;;;;;;5069491;28;20629;-69
2023/07/15 04:07:24;;;;;;;5.37;4.63;;;;;;;;;;5070411;28;20614;-67
2023/07/15 04:09:54;;;;;;;5.30;4.80;;;;;;;;;;5069879;28;21294;-68
2023/07/15 04:12:22;;;;;;;5.43;4.77;;;;;;;;;;5060797;28;20667;-68
2023/07/15 04:14:51;;;;;;;5.10;4.70;;;;;;;;;;5065906;28;20619;-69
2023/07/15 04:17:19;;;;;;;7.83;4.40;;;;;;;;;;5050234;28;20619;-69
2023/07/15 04:19:47;;;;;;;5.70;4.30;;;;;;;;;;5057955;28;20664;-68
2023/07/15 04:22:16;;;;;;;5.13;4.63;;;;;;;;;;5070432;28;20613;-68
2023/07/15 04:24:44;;;;;;;5.50;4.13;;;;;;;;;;5069023;28;20631;-67
2023/07/15 04:27:13;;;;;;;5.83;4.80;;;;;;;;;;5062215;28;20627;-68
2023/07/15 04:29:41;;;;;;;12.63;5.53;;;;;;;;;;5068896;28;21198;-68
2023/07/15 04:32:10;;;;;;;4.57;4.17;;;;;;;;;;5070525;28;20628;-69
2023/07/15 04:34:38;;;;;;;7.93;4.67;;;;;;;;;;5069428;28;20671;-68
2023/07/15 04:37:07;;;;;;;8.87;4.70;;;;;;;;;;5055568;28;20637;-68
2023/07/15 04:39:35;;;;;;;4.90;4.30;;;;;;;;;;5069609;28;20668;-68
2023/07/15 04:42:03;;;;;;;4.83;4.43;;;;;;;;;;5070347;28;20606;-69
2023/07/15 04:44:32;;;;;;;8.67;4.73;;;;;;;;;;5068654;28;20625;-68
2023/07/15 04:47:01;;;;;;;5.40;4.90;;;;;;;;;;5070196;28;20636;-68
2023/07/15 04:49:29;;;;;;;7.53;5.10;;;;;;;;;;5063533;28;20623;-68
2023/07/15 04:51:58;;;;;;;5.67;4.30;;;;;;;;;;5064799;28;21020;-68
2023/07/15 04:54:26;;;;;;;7.77;5.00;;;;;;;;;;5073692;28;20630;-68
2023/07/15 04:56:54;;;;;;;5.27;4.87;;;;;;;;;;5073143;28;21192;-69
2023/07/15 04:59:22;;;;;;;4.37;4.00;;;;;;;;;;5071155;28;20668;-68
2023/07/15 05:01:52;;;;;;;4.97;4.57;;;;;;;;;;5069686;28;20687;-68
2023/07/15 05:04:20;;;;;;;6.50;4.03;;;;;;;;;;5069337;28;20638;-68
2023/07/15 05:06:48;;;;;;;4.80;4.40;;;;;;;;;;5072210;28;20684;-68
2023/07/15 05:09:17;;;;;;;7.13;4.90;;;;;;;;;;5072820;28;20622;-69
2023/07/15 05:11:45;;;;;;;4.70;4.20;;;;;;;;;;5066759;28;21031;-66
2023/07/15 05:14:14;;;;;;;7.23;4.97;;;;;;;;;;5071336;28;20646;-65
2023/07/15 05:16:44;;;;;;;6.93;4.80;;;;;;;;;;5067440;28;20627;-68
2023/07/15 05:19:14;;;;;;;5.13;4.20;;;;;;;;;;5072664;28;20617;-69
2023/07/15 05:21:42;;;;;;;5.17;4.67;;;;;;;;;;5070233;28;20630;-67
2023/07/15 05:24:10;;;;;;;5.77;4.20;;;;;;;;;;5072975;28;21181;-70
2023/07/15 05:26:38;;;;;;;6.77;4.77;;;;;;;;;;5069552;28;20614;-68
2023/07/15 05:29:07;;;;;;;6.37;5.17;;;;;;;;;;5072081;28;21159;-70
2023/07/15 05:31:35;;;;;;;5.83;4.60;;;;;;;;;;5071106;28;21187;-68
2023/07/15 05:34:04;;;;;;;5.30;4.80;;;;;;;;;;5072483;28;20634;-65
2023/07/15 05:36:34;;;;;;;4.43;4.07;;;;;;;;;;5071714;28;20618;-64
2023/07/15 05:39:02;;;;;;;8.23;4.63;;;;;;;;;;5070427;28;20614;-65
2023/07/15 05:41:30;;;;;;;4.87;4.47;;;;;;;;;;5071653;28;20661;-65
2023/07/15 05:43:59;;;;;;;16.00;4.90;;;;;;;;;;5071920;28;20626;-65
2023/07/15 05:46:27;;;;;;;4.77;4.23;;;;;;;;;;5072420;28;20626;-65
2023/07/15 05:48:55;;;;;;;4.67;4.27;;;;;;;;;;5072122;28;20607;-68
2023/07/15 05:51:26;;;;;;;7.57;4.90;;;;;;;;;;5062709;28;20630;-64
2023/07/15 05:53:56;;;;;;;5.50;4.30;;;;;;;;;;5072552;28;20602;-65
2023/07/15 05:56:24;;;;;;;10.37;5.27;;;;;;;;;;5072420;28;20981;-65
2023/07/15 05:58:53;;;;;;;9.30;4.93;;;;;;;;;;5072092;28;20649;-65
2023/07/15 06:01:21;;;;;;;5.20;4.70;;;;;;;;;;5071584;28;21081;-64
2023/07/15 06:03:49;;;;;;;5.13;4.63;;;;;;;;;;5068344;28;20614;-64
2023/07/15 06:06:17;;;;;;;3.93;3.70;;;;;;;;;;5072355;28;21018;-65
2023/07/15 06:08:46;;;;;;;5.63;4.33;;;;;;;;;;5070747;28;20665;-65
2023/07/15 06:11:17;;;;;;;4.30;3.97;;;;;;;;;;5058238;28;20666;-65
2023/07/15 06:13:45;;;;;;;4.50;4.10;;;;;;;;;;5071648;28;21224;-65
2023/07/15 06:16:13;;;;;;;5.27;4.30;;;;;;;;;;5065851;28;20633;-64
2023/07/15 06:18:41;;;;;;;9.13;4.00;;;;;;;;;;5065034;28;20989;-64
2023/07/15 06:21:09;;;;;;;4.90;4.50;;;;;;;;;;5072246;28;21275;-65
2023/07/15 06:23:38;;;;;;;8.87;5.00;;;;;;;;;;5072438;28;20610;-64
2023/07/15 06:26:06;;;;;;;5.67;5.17;;;;;;;;;;5068648;28;20634;-65
2023/07/15 06:28:35;;;;;;;20.63;5.90;;;;;;;;;;5071613;28;21233;-64
2023/07/15 06:31:06;;;;;;;5.53;4.40;;;;;;;;;;5072036;28;20921;-65
2023/07/15 06:33:35;;;;;;;4.50;4.20;;;;;;;;;;5070141;28;21198;-64
2023/07/15 06:36:03;;;;;;;4.37;3.97;;;;;;;;;;5052064;28;21185;-64
2023/07/15 06:38:32;;;;;;;4.93;4.60;;;;;;;;;;5067704;28;20633;-64
2023/07/15 06:41:00;;;;;;;8.60;5.13;;;;;;;;;;5071501;28;20665;-64
2023/07/15 06:43:28;;;;;;;4.57;4.23;;;;;;;;;;5064713;28;20633;-65
2023/07/15 06:45:58;;;;;;;9.60;4.67;;;;;;;;;;5071365;28;21068;-65
2023/07/15 06:48:26;;;;;;;4.83;4.40;;;;;;;;;;5070279;28;21199;-64
2023/07/15 06:50:54;;;;;;;7.70;4.83;;;;;;;;;;5071897;28;20623;-64
2023/07/15 06:53:22;;;;;;;7.37;5.13;;;;;;;;;;5071120;28;20623;-65
2023/07/15 06:55:51;;;;;;;6.17;4.50;;;;;;;;;;5071819;28;20623;-65
2023/07/15 06:58:19;;;;;;;4.83;4.53;;;;;;;;;;5069686;28;20654;-65
2023/07/15 07:00:48;;;;;;;5.43;4.77;;;;;;;;;;5069376;28;20654;-65
2023/07/15 07:03:17;;;;;;;6.80;4.70;;;;;;;;;;5069826;28;21196;-65
2023/07/15 07:05:45;;;;;;;8.43;5.30;;;;;;;;;;5071424;28;21179;-64
2023/07/15 07:08:14;;;;;;;7.07;4.80;;;;;;;;;;5071735;28;20618;-67
2023/07/15 07:10:42;;;;;;;4.43;4.00;;;;;;;;;;5068281;28;20719;-62
2023/07/15 07:13:10;;;;;;;4.30;4.00;;;;;;;;;;5069931;28;20606;-65
2023/07/15 07:15:38;;;;;;;4.50;3.80;;;;;;;;;;5070283;28;20991;-65
2023/07/15 07:18:07;;;;;;;7.50;4.33;;;;;;;;;;5062235;28;20594;-65
2023/07/15 07:20:36;;;;;;;5.50;4.00;;;;;;;;;;5069946;28;20654;-64
2023/07/15 07:23:04;;;;;;;5.30;4.80;;;;;;;;;;5070649;28;21015;-65
2023/07/15 07:25:32;;;;;;;5.83;4.83;;;;;;;;;;5070538;28;21036;-64
2023/07/15 07:28:01;;;;;;;5.10;4.60;;;;;;;;;;5070497;28;20622;-64
2023/07/15 07:30:29;;;;;;;4.73;4.20;;;;;;;;;;5070977;28;20630;-65
2023/07/15 07:32:57;;;;;;;5.40;4.03;;;;;;;;;;5051771;28;20641;-65
2023/07/15 07:35:25;;;;;;;8.33;5.03;;;;;;;;;;5054389;28;20708;-65
2023/07/15 07:37:55;;;;;;;4.93;4.13;;;;;;;;;;5067883;28;20626;-65
2023/07/15 07:40:23;;;;;;;6.40;5.10;;;;;;;;;;5070043;28;20630;-65
2023/07/15 07:42:51;;;;;;;4.67;4.03;;;;;;;;;;5071086;28;20617;-67
2023/07/15 07:45:21;;;;;;;5.13;4.60;;;;;;;;;;5070557;28;20614;-65
2023/07/15 07:47:49;;;;;;;4.10;3.70;;;;;;;;;;5070326;28;21256;-63
2023/07/15 07:50:17;;;;;;;5.00;4.57;;;;;;;;;;5066312;28;20638;-64
2023/07/15 07:52:47;;;;;;;5.03;4.57;;;;;;;;;;5050511;28;20603;-64
2023/07/15 07:55:17;;;;;;;5.33;4.93;;;;;;;;;;5055281;28;20630;-64
2023/07/15 07:57:45;;;;;;;5.63;4.37;;;;;;;;;;5070561;28;20668;-64
2023/07/15 08:00:14;;;;;;;4.50;4.10;;;;;;;;;;5070422;28;20641;-64
2023/07/15 08:02:43;;;;;;;5.53;4.47;;;;;;;;;;5068480;28;20653;-65
2023/07/15 08:05:11;;;;;;;5.10;4.70;;;;;;;;;;5069822;28;20939;-64
2023/07/15 08:07:39;;;;;;;4.20;3.90;;;;;;;;;;5070316;28;20636;-64
2023/07/15 08:10:08;;;;;;;5.00;4.70;;;;;;;;;;5059169;28;20654;-64
2023/07/15 08:12:37;;;;;;;4.67;4.37;;;;;;;;;;5049983;28;21199;-65
2023/07/15 08:15:06;;;;;;;4.70;4.30;;;;;;;;;;5070416;28;20626;-64
2023/07/15 08:17:34;;;;;;;5.50;5.10;;;;;;;;;;5070461;28;20670;-65
2023/07/15 08:20:03;;;;;;;5.47;4.97;;;;;;;;;;5071297;28;20616;-64
2023/07/15 08:22:31;;;;;;;4.60;4.20;;;;;;;;;;5068923;28;20658;-65
2023/07/15 08:24:59;;;;;;;5.73;4.43;;;;;;;;;;5068175;28;21163;-66
2023/07/15 08:27:27;;;;;;;5.20;4.77;;;;;;;;;;5067288;28;20634;-63
2023/07/15 08:29:57;;;;;;;5.20;4.90;;;;;;;;;;5071499;28;20618;-64
2023/07/15 08:32:25;;;;;;;5.23;4.63;;;;;;;;;;5073549;28;20618;-64
2023/07/15 08:35:00;;;;;;;4.72;3.97;;;;;;;;;;5089924;28;20806;-66
2023/07/15 08:37:28;;;;;;;4.90;4.60;;;;;;;;;;5098367;28;20195;-67
2023/07/15 08:39:56;;;;;;;7.50;5.57;;;;;;;;;;5091789;28;20661;-66
2023/07/15 08:42:25;;;;;;;7.10;4.93;;;;;;;;;;5089207;28;20694;-67
2023/07/15 08:44:54;;;;;;;6.53;5.20;;;;;;;;;;5093124;28;20708;-66
2023/07/15 08:47:24;;;;;;;4.70;4.47;;;;;;;;;;5094137;28;20646;-67
2023/07/15 08:49:53;;;;;;;5.00;4.73;;;;;;;;;;5091699;28;20610;-66
2023/07/15 08:52:22;;;;;;;5.50;5.00;;;;;;;;;;5093230;28;20641;-66
2023/07/15 08:54:51;;;;;;;5.20;4.80;;;;;;;;;;5096763;28;20598;-66
2023/07/15 08:57:20;;;;;;;5.33;5.00;;;;;;;;;;5096056;28;20629;-66
2023/07/15 08:59:48;;;;;;;6.03;5.70;;;;;;;;;;5096991;28;20644;-67
2023/07/15 09:02:17;;;;;;;5.10;4.83;;;;;;;;;;5094260;28;20682;-67
2023/07/15 09:04:46;;;;;;;7.43;5.47;;;;;;;;;;5096163;28;20625;-68
2023/07/15 09:07:15;;;;;;;8.20;5.80;;;;;;;;;;5095905;28;20656;-67
2023/07/15 09:09:43;;;;;;;7.70;5.23;;;;;;;;;;5069747;28;20648;-64
2023/07/15 09:12:12;;;;;;;5.87;5.33;;;;;;;;;;5070583;28;20637;-65
2023/07/15 09:14:43;;;;;;;4.67;4.30;;;;;;;;;;5073205;28;20625;-64
2023/07/15 09:17:16;;;;;;;5.40;4.80;;;;;;;;;;5072450;28;20598;-64
2023/07/15 09:19:45;;;;;;;7.37;5.00;;;;;;;;;;5069541;28;21181;-65
2023/07/15 09:22:15;;;;;;;5.77;5.23;;;;;;;;;;5073601;28;20654;-64
2023/07/15 09:24:43;;;;;;;4.97;4.57;;;;;;;;;;5072895;28;21168;-64
2023/07/15 09:27:11;;;;;;;5.57;4.90;;;;;;;;;;5074051;28;20613;-64
2023/07/15 09:29:39;;;;;;;5.20;4.80;;;;;;;;;;5071161;28;20629;-65
2023/07/15 09:32:08;;;;;;;5.20;4.80;;;;;;;;;;5073592;28;21148;-64
2023/07/15 09:34:40;;;;;;;6.53;5.00;;;;;;;;;;5070929;28;20814;-65
2023/07/15 09:37:08;;;;;;;5.50;5.00;;;;;;;;;;5069312;28;20964;-65
2023/07/15 09:39:38;;;;;;;5.27;4.73;;;;;;;;;;5072390;28;20618;-65
2023/07/15 09:42:07;;;;;;;5.43;4.93;;;;;;;;;;5073057;28;20662;-64
2023/07/15 09:44:39;;;;;;;5.50;5.00;;;;;;;;;;5069187;28;20614;-64
2023/07/15 09:47:07;;;;;;;5.30;4.90;;;;;;;;;;5070074;28;20606;-65
2023/07/15 09:49:36;;;;;;;5.37;4.83;;;;;;;;;;5072688;28;20985;-65
2023/07/15 09:52:05;;;;;;;5.37;4.80;;;;;;;;;;5070022;28;20628;-65
2023/07/15 09:54:33;;;;;;;5.30;4.90;;;;;;;;;;5071685;28;21030;-65
2023/07/15 09:57:04;;;;;;;6.90;5.00;;;;;;;;;;5069870;28;20634;-64
2023/07/15 09:59:38;;;;;;;4.80;4.40;;;;;;;;;;5054854;28;20656;-65
2023/07/15 10:02:07;;;;;;;5.50;5.10;;;;;;;;;;5072124;28;20630;-65
2023/07/15 10:04:36;;;;;;;5.40;5.10;;;;;;;;;;5071747;28;20992;-64
2023/07/15 10:07:04;;;;;;;5.07;4.77;;;;;;;;;;5072420;28;20618;-65
2023/07/15 10:09:33;;;;;;;5.37;4.57;;;;;;;;;;5070792;28;20997;-65
2023/07/15 10:12:02;;;;;;;7.27;4.30;;;;;;;;;;5070577;28;20626;-65
2023/07/15 10:14:31;;;;;;;5.10;4.63;;;;;;;;;;5073062;28;20614;-64
2023/07/15 10:17:17;;;;;;;10.73;5.47;;;;;;;;;;5072543;28;20624;-64
2023/07/15 10:19:46;;;;;;;6.90;4.90;;;;;;;;;;5072772;28;21128;-65
2023/07/15 10:22:15;;;;;;;4.87;4.63;;;;;;;;;;5073610;28;20650;-66
2023/07/15 10:24:43;;;;;;;6.53;6.03;;;;;;;;;;5072810;28;21233;-68
2023/07/15 10:27:12;;;;;;;5.40;5.10;;;;;;;;;;5072562;28;20606;-68
2023/07/15 10:29:42;;;;;;;5.27;4.80;;;;;;;;;;5056398;28;20630;-68
2023/07/15 10:32:11;;;;;;;5.53;5.03;;;;;;;;;;5052331;28;20618;-67
2023/07/15 10:34:40;;;;;;;5.50;5.10;;;;;;;;;;5052116;28;20688;-67
2023/07/15 10:37:09;;;;;;;9.10;5.40;;;;;;;;;;5063002;28;20614;-68
2023/07/15 10:39:37;;;;;;;4.83;4.47;;;;;;;;;;5072528;28;20614;-67
2023/07/15 10:42:09;;;;;;;5.30;5.00;;;;;;;;;;5071423;28;21257;-66
2023/07/15 10:44:44;;;;;;;12.67;5.70;;;;;;;;;;5068146;28;20607;-67
2023/07/15 10:47:14;;;;;;;5.27;4.77;;;;;;;;;;5072045;28;20739;-68
2023/07/15 10:49:42;;;;;;;5.33;5.03;;;;;;;;;;5071716;28;20622;-68
2023/07/15 10:52:10;;;;;;;5.70;5.30;;;;;;;;;;5072257;28;20614;-68
2023/07/15 10:54:39;;;;;;;5.70;5.13;;;;;;;;;;5071905;28;20614;-67
2023/07/15 10:57:10;;;;;;;5.80;5.30;;;;;;;;;;5071935;28;20625;-68
2023/07/15 10:59:39;;;;;;;5.70;5.20;;;;;;;;;;5071807;28;20610;-68
2023/07/15 11:02:09;;;;;;;6.00;4.70;;;;;;;;;;5066588;28;20630;-67
2023/07/15 11:04:38;;;;;;;5.90;5.30;;;;;;;;;;5070312;28;21260;-67
2023/07/15 11:07:06;;;;;;;5.47;4.93;;;;;;;;;;5070248;28;20976;-68
2023/07/15 11:09:38;;;;;;;5.20;4.83;;;;;;;;;;5071848;28;20612;-69
2023/07/15 11:12:08;;;;;;;5.50;4.83;;;;;;;;;;5071627;28;20608;-67
2023/07/15 11:14:39;;;;;;;5.10;4.67;;;;;;;;;;5071014;28;20614;-67
2023/07/15 11:17:08;;;;;;;5.63;5.07;;;;;;;;;;5072176;28;20582;-68
2023/07/15 11:19:36;;;;;;;6.43;5.33;;;;;;;;;;5066706;28;20626;-68
2023/07/15 11:22:07;;;;;;;5.97;5.47;;;;;;;;;;5056135;28;20885;-68
2023/07/15 11:24:36;;;;;;;6.40;5.80;;;;;;;;;;5050064;28;20580;-68
2023/07/15 11:27:04;;;;;;;6.00;4.90;;;;;;;;;;5051483;28;20623;-66
2023/07/15 11:29:32;;;;;;;6.57;5.33;;;;;;;;;;5050959;28;20611;-68
2023/07/15 11:32:02;;;;;;;7.73;5.10;;;;;;;;;;5051801;28;20973;-67
2023/07/15 11:34:31;;;;;;;5.33;5.00;;;;;;;;;;5050789;28;20603;-67
2023/07/15 11:37:02;;;;;;;11.43;5.00;;;;;;;;;;5055043;28;20626;-67
2023/07/15 11:39:31;;;;;;;5.30;5.00;;;;;;;;;;5051310;28;20589;-68
2023/07/15 11:41:59;;;;;;;6.27;5.63;;;;;;;;;;5051922;28;20611;-68
2023/07/15 11:44:27;;;;;;;11.30;5.83;;;;;;;;;;5050615;28;20659;-68
2023/07/15 11:46:57;;;;;;;7.63;5.67;;;;;;;;;;5051653;28;20619;-69
2023/07/15 11:49:25;;;;;;;5.60;5.10;;;;;;;;;;5050697;28;20683;-66
2023/07/15 11:51:57;;;;;;;8.73;5.47;;;;;;;;;;5051927;28;20603;-67
2023/07/15 11:54:25;;;;;;;8.50;5.93;;;;;;;;;;5067995;28;21267;-67
2023/07/15 11:56:54;;;;;;;7.70;5.97;;;;;;;;;;5070574;28;20636;-68
2023/07/15 11:59:26;;;;;;;5.70;5.30;;;;;;;;;;5069311;28;20654;-67
2023/07/15 12:01:55;;;;;;;5.50;5.00;;;;;;;;;;5073923;28;21035;-67
2023/07/15 12:04:23;;;;;;;5.83;5.40;;;;;;;;;;5074247;28;20642;-68
2023/07/15 12:06:52;;;;;;;8.60;6.27;;;;;;;;;;5075409;28;20617;-67
2023/07/15 12:09:22;;;;;;;6.10;5.50;;;;;;;;;;5074952;28;20610;-68
2023/07/15 12:11:51;;;;;;;8.80;5.10;;;;;;;;;;5066985;28;20672;-68
2023/07/15 12:14:19;;;;;;;10.80;5.27;;;;;;;;;;5074037;28;20948;-67
2023/07/15 12:16:51;;;;;;;7.17;5.33;;;;;;;;;;5074216;28;20614;-69
2023/07/15 12:19:23;;;;;;;5.83;5.33;;;;;;;;;;5075325;28;20602;-69
2023/07/15 12:21:51;;;;;;;6.07;5.57;;;;;;;;;;5074849;28;21128;-69
2023/07/15 12:24:19;;;;;;;14.80;5.60;;;;;;;;;;5075153;28;20691;-69
2023/07/15 12:26:49;;;;;;;5.60;5.17;;;;;;;;;;5074218;28;20667;-67
2023/07/15 12:29:17;;;;;;;14.23;6.80;;;;;;;;;;5071583;28;20632;-66
2023/07/15 12:31:46;;;;;;;6.20;5.60;;;;;;;;;;5065378;28;20629;-66
2023/07/15 12:34:14;;;;;;;7.60;6.00;;;;;;;;;;5053243;28;20625;-65
2023/07/15 12:36:43;;;;;;;6.93;6.33;;;;;;;;;;5069467;28;20622;-67
2023/07/15 12:39:11;;;;;;;6.03;5.63;;;;;;;;;;5074942;28;20620;-68
2023/07/15 12:41:39;;;;;;;6.20;5.80;;;;;;;;;;5074627;28;20628;-67
2023/07/15 12:44:12;;;;;;;7.40;5.63;;;;;;;;;;5074115;28;20653;-68
2023/07/15 12:46:40;;;;;;;12.63;6.33;;;;;;;;;;5072925;28;20586;-67
2023/07/15 12:49:08;;;;;;;6.70;5.60;;;;;;;;;;5057364;28;20696;-68
2023/07/15 12:51:36;;;;;;;7.27;6.67;;;;;;;;;;5053941;28;21199;-67
2023/07/15 12:54:04;;;;;;;6.00;5.50;;;;;;;;;;5052901;28;20689;-66
2023/07/15 12:56:33;;;;;;;6.67;6.20;;;;;;;;;;5068079;28;20626;-67
2023/07/15 12:59:01;;;;;;;6.23;5.83;;;;;;;;;;5070150;28;20654;-68
2023/07/15 13:01:30;;;;;;;5.93;5.60;;;;;;;;;;5073059;28;20981;-66
2023/07/15 13:03:59;;;;;;;6.73;6.13;;;;;;;;;;5070227;28;20658;-67
2023/07/15 13:06:27;;;;;;;6.37;5.60;;;;;;;;;;5072895;28;20617;-67
2023/07/15 13:08:55;;;;;;;5.80;5.13;;;;;;;;;;5073282;28;20625;-67
2023/07/15 13:11:23;;;;;;;6.97;5.53;;;;;;;;;;5063482;28;20659;-68
2023/07/15 13:13:51;;;;;;;6.80;5.63;;;;;;;;;;5065546;28;20614;-68
2023/07/15 13:16:20;;;;;;;6.50;5.97;;;;;;;;;;5073393;28;20620;-68
2023/07/15 13:18:49;;;;;;;6.03;5.60;;;;;;;;;;5063592;28;20622;-65
2023/07/15 13:21:17;;;;;;;8.30;5.83;;;;;;;;;;5070673;28;20630;-67
2023/07/15 13:23:46;;;;;;;6.30;5.80;;;;;;;;;;5072494;28;20669;-68
2023/07/15 13:26:14;;;;;;;5.60;5.30;;;;;;;;;;5066538;28;20618;-66
2023/07/15 13:28:42;;;;;;;5.63;5.33;;;;;;;;;;5066681;28;20634;-67
2023/07/15 13:31:10;;;;;;;6.33;6.00;;;;;;;;;;5065876;28;20632;-67
2023/07/15 13:33:38;;;;;;;7.07;6.50;;;;;;;;;;5072255;28;21037;-68
2023/07/15 13:36:08;;;;;;;6.77;6.30;;;;;;;;;;5068248;28;20624;-69
2023/07/15 13:38:36;;;;;;;6.43;5.93;;;;;;;;;;5072403;28;21229;-68
2023/07/15 13:41:04;;;;;;;8.67;6.60;;;;;;;;;;5070059;28;20627;-65
2023/07/15 13:43:32;;;;;;;12.00;6.60;;;;;;;;;;5071711;28;21246;-66
2023/07/15 13:46:00;;;;;;;7.37;6.77;;;;;;;;;;5070694;28;20703;-68
2023/07/15 13:48:29;;;;;;;7.27;6.67;;;;;;;;;;5072973;28;20622;-67
2023/07/15 13:50:57;;;;;;;11.43;6.23;;;;;;;;;;5071818;28;21009;-67
2023/07/15 13:53:26;;;;;;;6.63;6.20;;;;;;;;;;5071642;28;20625;-67
2023/07/15 13:55:55;;;;;;;9.80;6.57;;;;;;;;;;5071843;28;20630;-68
2023/07/15 13:58:23;;;;;;;6.47;5.40;;;;;;;;;;5066512;28;20668;-67
2023/07/15 14:00:51;;;;;;;6.60;6.10;;;;;;;;;;5058199;28;20648;-67
2023/07/15 14:03:19;;;;;;;7.77;6.73;;;;;;;;;;5068229;28;20637;-67
2023/07/15 14:05:47;;;;;;;7.57;5.50;;;;;;;;;;5066514;28;20732;-67
2023/07/15 14:08:19;;;;;;;6.83;6.10;;;;;;;;;;5071328;28;20634;-65
2023/07/15 14:10:49;;;;;;;5.53;5.03;;;;;;;;;;5062861;28;20657;-67
2023/07/15 14:13:17;;;;;;;7.73;5.50;;;;;;;;;;5065449;28;20622;-67
2023/07/15 14:15:45;;;;;;;6.97;6.27;;;;;;;;;;5067602;28;20634;-67
2023/07/15 14:18:13;;;;;;;6.07;5.40;;;;;;;;;;5072666;28;20618;-67
2023/07/15 14:20:41;;;;;;;7.30;5.10;;;;;;;;;;5070279;28;20648;-66
2023/07/15 14:23:10;;;;;;;5.60;5.10;;;;;;;;;;5070913;28;20633;-68
2023/07/15 14:25:38;;;;;;;8.00;7.00;;;;;;;;;;5068199;28;20662;-67
2023/07/15 14:28:07;;;;;;;9.40;8.20;;;;;;;;;;5061820;28;21157;-67
2023/07/15 14:30:35;;;;;;;6.87;5.83;;;;;;;;;;5068128;28;20631;-67
2023/07/15 14:33:04;;;;;;;6.13;5.00;;;;;;;;;;5072087;28;20630;-66
2023/07/15 14:35:32;;;;;;;5.67;5.27;;;;;;;;;;5071517;28;20622;-68
2023/07/15 14:38:00;;;;;;;5.83;5.33;;;;;;;;;;5070877;28;20682;-67
2023/07/15 14:40:28;;;;;;;7.17;5.00;;;;;;;;;;5071186;28;20610;-67
2023/07/15 14:42:56;;;;;;;6.23;4.50;;;;;;;;;;5071496;28;20622;-68
2023/07/15 14:45:26;;;;;;;5.70;4.40;;;;;;;;;;5064006;28;20676;-67
2023/07/15 14:47:54;;;;;;;4.63;4.20;;;;;;;;;;5071921;28;20614;-67
2023/07/15 14:50:22;;;;;;;5.37;4.63;;;;;;;;;;5071601;28;20627;-68
2023/07/15 14:52:51;;;;;;;6.37;5.53;;;;;;;;;;5071803;28;20678;-67